sensor_id;sensor_type;location;lat;lon;timestamp;pressure;altitude;pressure_sealevel;temperature;humidity
54900;BME280;40801;41.924;25.562;2023-03-20T00:00:35;100006.34;;;7.40;65.38
54900;BME280;40801;41.924;25.562;2023-03-20T00:03:01;100000.47;;;7.33;64.31
54900;BME280;40801;41.924;25.562;2023-03-20T00:05:28;100003.94;;;7.24;64.77
54900;BME280;40801;41.924;25.562;2023-03-20T00:07:55;99999.91;;;7.11;64.95
54900;BME280;40801;41.924;25.562;2023-03-20T00:10:33;100002.31;;;7.07;65.03
54900;BME280;40801;41.924;25.562;2023-03-20T00:12:59;99997.22;;;7.01;64.57
54900;BME280;40801;41.924;25.562;2023-03-20T00:15:29;100000.97;;;6.95;65.00
54900;BME280;40801;41.924;25.562;2023-03-20T00:17:55;100000.91;;;6.74;67.74
54900;BME280;40801;41.924;25.562;2023-03-20T00:20:21;99988.28;;;6.70;65.38
54900;BME280;40801;41.924;25.562;2023-03-20T00:22:46;99994.94;;;6.62;65.78
54900;BME280;40801;41.924;25.562;2023-03-20T00:25:17;99986.16;;;6.72;65.48
54900;BME280;40801;41.924;25.562;2023-03-20T00:27:44;99988.56;;;6.68;65.14
54900;BME280;40801;41.924;25.562;2023-03-20T00:30:20;99977.53;;;6.65;66.03
54900;BME280;40801;41.924;25.562;2023-03-20T00:32:50;99974.56;;;6.56;65.42
54900;BME280;40801;41.924;25.562;2023-03-20T00:35:27;99978.06;;;6.57;67.29
54900;BME280;40801;41.924;25.562;2023-03-20T00:37:54;99982.88;;;6.49;65.86
54900;BME280;40801;41.924;25.562;2023-03-20T00:40:20;99978.03;;;6.46;65.78
54900;BME280;40801;41.924;25.562;2023-03-20T00:42:53;99966.78;;;6.44;66.24
54900;BME280;40801;41.924;25.562;2023-03-20T00:45:21;99966.22;;;6.37;65.93
54900;BME280;40801;41.924;25.562;2023-03-20T00:47:51;99970.78;;;6.37;66.11
54900;BME280;40801;41.924;25.562;2023-03-20T00:50:21;99964.28;;;6.28;68.80
54900;BME280;40801;41.924;25.562;2023-03-20T00:52:48;99975.81;;;6.28;66.21
54900;BME280;40801;41.924;25.562;2023-03-20T00:55:14;99965.63;;;6.25;67.07
54900;BME280;40801;41.924;25.562;2023-03-20T01:00:37;99959.44;;;6.14;68.43
54900;BME280;40801;41.924;25.562;2023-03-20T01:03:29;99954.06;;;6.14;67.13
54900;BME280;40801;41.924;25.562;2023-03-20T01:05:56;99958.09;;;6.12;66.61
54900;BME280;40801;41.924;25.562;2023-03-20T01:08:23;99951.88;;;6.06;66.74
54900;BME280;40801;41.924;25.562;2023-03-20T01:10:54;99953.75;;;6.06;66.82
54900;BME280;40801;41.924;25.562;2023-03-20T01:13:27;99947.56;;;6.00;66.47
54900;BME280;40801;41.924;25.562;2023-03-20T01:15:54;99952.31;;;5.88;66.71
54900;BME280;40801;41.924;25.562;2023-03-20T01:18:22;99950.75;;;5.92;66.08
54900;BME280;40801;41.924;25.562;2023-03-20T01:20:48;99950.13;;;5.80;66.22
54900;BME280;40801;41.924;25.562;2023-03-20T01:23:15;99940.97;;;5.76;66.02
54900;BME280;40801;41.924;25.562;2023-03-20T01:25:41;99950.03;;;5.70;65.95
54900;BME280;40801;41.924;25.562;2023-03-20T01:28:32;99946.81;;;5.63;67.41
54900;BME280;40801;41.924;25.562;2023-03-20T01:30:58;99939.53;;;5.53;66.24
54900;BME280;40801;41.924;25.562;2023-03-20T01:33:24;99946.44;;;5.49;66.39
54900;BME280;40801;41.924;25.562;2023-03-20T01:35:52;99947.19;;;5.44;66.50
54900;BME280;40801;41.924;25.562;2023-03-20T01:38:20;99945.56;;;5.38;66.72
54900;BME280;40801;41.924;25.562;2023-03-20T01:43:19;99943.69;;;5.39;66.04
54900;BME280;40801;41.924;25.562;2023-03-20T01:45:59;99951.94;;;5.32;67.22
54900;BME280;40801;41.924;25.562;2023-03-20T01:48:35;99945.75;;;5.26;66.95
54900;BME280;40801;41.924;25.562;2023-03-20T01:51:25;99945.34;;;5.13;66.80
54900;BME280;40801;41.924;25.562;2023-03-20T01:56:28;99949.56;;;5.04;66.75
54900;BME280;40801;41.924;25.562;2023-03-20T01:59:00;99952.19;;;4.98;67.48
54900;BME280;40801;41.924;25.562;2023-03-20T02:01:28;99951.72;;;5.07;66.57
54900;BME280;40801;41.924;25.562;2023-03-20T02:03:55;99938.78;;;4.93;66.97
54900;BME280;40801;41.924;25.562;2023-03-20T02:06:22;99935.06;;;4.94;67.05
54900;BME280;40801;41.924;25.562;2023-03-20T02:08:50;99944.97;;;4.99;66.80
54900;BME280;40801;41.924;25.562;2023-03-20T02:11:18;99944.50;;;5.07;66.21
54900;BME280;40801;41.924;25.562;2023-03-20T02:13:45;99938.91;;;5.09;66.08
54900;BME280;40801;41.924;25.562;2023-03-20T02:16:14;99952.78;;;5.06;67.02
54900;BME280;40801;41.924;25.562;2023-03-20T02:18:42;99946.59;;;5.00;66.91
54900;BME280;40801;41.924;25.562;2023-03-20T02:21:22;99942.06;;;5.01;66.96
54900;BME280;40801;41.924;25.562;2023-03-20T02:40:32;99928.19;;;4.77;69.87
54900;BME280;40801;41.924;25.562;2023-03-20T02:43:10;99931.03;;;4.92;67.76
54900;BME280;40801;41.924;25.562;2023-03-20T02:51:07;99926.28;;;4.72;70.15
54900;BME280;40801;41.924;25.562;2023-03-20T02:53:47;99918.78;;;4.69;69.50
54900;BME280;40801;41.924;25.562;2023-03-20T02:56:16;99926.81;;;4.69;69.48
54900;BME280;40801;41.924;25.562;2023-03-20T02:59:01;99923.03;;;4.65;70.76
54900;BME280;40801;41.924;25.562;2023-03-20T03:01:35;99929.47;;;4.69;69.43
54900;BME280;40801;41.924;25.562;2023-03-20T03:04:09;99924.56;;;4.61;69.50
54900;BME280;40801;41.924;25.562;2023-03-20T03:06:37;99926.97;;;4.62;69.09
54900;BME280;40801;41.924;25.562;2023-03-20T03:09:14;99926.88;;;4.52;70.08
54900;BME280;40801;41.924;25.562;2023-03-20T03:11:48;99919.38;;;4.49;70.27
54900;BME280;40801;41.924;25.562;2023-03-20T03:14:20;99917.31;;;4.56;69.23
54900;BME280;40801;41.924;25.562;2023-03-20T03:16:50;99925.69;;;4.65;68.82
54900;BME280;40801;41.924;25.562;2023-03-20T03:19:21;99925.03;;;4.53;69.57
54900;BME280;40801;41.924;25.562;2023-03-20T03:21:48;99920.44;;;4.48;69.39
54900;BME280;40801;41.924;25.562;2023-03-20T03:24:36;99915.59;;;4.45;70.27
54900;BME280;40801;41.924;25.562;2023-03-20T03:27:06;99911.31;;;4.44;69.25
54900;BME280;40801;41.924;25.562;2023-03-20T03:29:37;99923.09;;;4.48;68.80
54900;BME280;40801;41.924;25.562;2023-03-20T03:32:05;99924.69;;;4.44;68.83
54900;BME280;40801;41.924;25.562;2023-03-20T03:34:32;99922.50;;;4.41;69.11
54900;BME280;40801;41.924;25.562;2023-03-20T03:42:36;99922.47;;;4.36;68.33
54900;BME280;40801;41.924;25.562;2023-03-20T03:47:44;99925.44;;;4.40;68.85
54900;BME280;40801;41.924;25.562;2023-03-20T03:50:18;99932.34;;;4.35;69.17
54900;BME280;40801;41.924;25.562;2023-03-20T03:52:46;99920.19;;;4.50;68.20
54900;BME280;40801;41.924;25.562;2023-03-20T03:55:21;99929.25;;;4.49;68.17
54900;BME280;40801;41.924;25.562;2023-03-20T03:57:54;99925.63;;;4.60;68.24
54900;BME280;40801;41.924;25.562;2023-03-20T04:00:23;99923.03;;;4.65;68.62
54900;BME280;40801;41.924;25.562;2023-03-20T04:02:53;99922.06;;;4.76;67.93
54900;BME280;40801;41.924;25.562;2023-03-20T04:05:19;99929.50;;;4.74;68.32
54900;BME280;40801;41.924;25.562;2023-03-20T04:07:47;99921.00;;;4.77;68.28
54900;BME280;40801;41.924;25.562;2023-03-20T04:10:16;99925.09;;;4.90;68.23
54900;BME280;40801;41.924;25.562;2023-03-20T04:12:43;99926.78;;;4.96;67.91
54900;BME280;40801;41.924;25.562;2023-03-20T04:15:11;99937.03;;;5.09;67.52
54900;BME280;40801;41.924;25.562;2023-03-20T04:17:37;99929.88;;;5.15;68.72
54900;BME280;40801;41.924;25.562;2023-03-20T04:20:03;99922.53;;;5.32;68.13
54900;BME280;40801;41.924;25.562;2023-03-20T04:22:29;99931.13;;;5.39;68.24
54900;BME280;40801;41.924;25.562;2023-03-20T04:24:55;99934.88;;;5.43;69.00
54900;BME280;40801;41.924;25.562;2023-03-20T04:27:20;99936.75;;;5.43;69.98
54900;BME280;40801;41.924;25.562;2023-03-20T04:29:46;99940.78;;;5.45;69.16
54900;BME280;40801;41.924;25.562;2023-03-20T04:32:12;99933.41;;;5.57;67.69
54900;BME280;40801;41.924;25.562;2023-03-20T04:34:37;99932.22;;;5.43;68.74
54900;BME280;40801;41.924;25.562;2023-03-20T04:37:03;99926.78;;;5.28;69.27
54900;BME280;40801;41.924;25.562;2023-03-20T04:39:29;99938.28;;;5.28;69.83
54900;BME280;40801;41.924;25.562;2023-03-20T04:41:55;99936.66;;;5.27;69.86
54900;BME280;40801;41.924;25.562;2023-03-20T04:44:21;99927.59;;;5.34;68.71
54900;BME280;40801;41.924;25.562;2023-03-20T04:46:46;99939.41;;;5.38;68.64
54900;BME280;40801;41.924;25.562;2023-03-20T04:49:11;99935.66;;;5.39;68.87
54900;BME280;40801;41.924;25.562;2023-03-20T04:51:37;99944.72;;;5.33;70.17
54900;BME280;40801;41.924;25.562;2023-03-20T04:54:02;99935.88;;;5.32;70.55
54900;BME280;40801;41.924;25.562;2023-03-20T04:56:28;99935.13;;;5.37;70.23
54900;BME280;40801;41.924;25.562;2023-03-20T04:58:53;99938.91;;;5.46;69.77
54900;BME280;40801;41.924;25.562;2023-03-20T05:01:18;99946.13;;;5.45;70.66
54900;BME280;40801;41.924;25.562;2023-03-20T05:03:44;99944.34;;;5.56;69.48
54900;BME280;40801;41.924;25.562;2023-03-20T05:06:10;99943.28;;;5.57;69.62
54900;BME280;40801;41.924;25.562;2023-03-20T05:08:35;99946.75;;;5.52;70.07
54900;BME280;40801;41.924;25.562;2023-03-20T05:11:01;99952.59;;;5.49;70.03
54900;BME280;40801;41.924;25.562;2023-03-20T05:13:26;99954.44;;;5.49;69.97
54900;BME280;40801;41.924;25.562;2023-03-20T05:15:51;99956.41;;;5.58;68.61
54900;BME280;40801;41.924;25.562;2023-03-20T05:18:17;99960.38;;;5.51;68.84
54900;BME280;40801;41.924;25.562;2023-03-20T05:20:42;99963.06;;;5.51;68.55
54900;BME280;40801;41.924;25.562;2023-03-20T05:23:08;99963.31;;;5.49;68.98
54900;BME280;40801;41.924;25.562;2023-03-20T05:25:33;99968.88;;;5.48;69.41
54900;BME280;40801;41.924;25.562;2023-03-20T05:27:58;99960.38;;;5.51;69.50
54900;BME280;40801;41.924;25.562;2023-03-20T05:30:24;99960.91;;;5.53;69.97
54900;BME280;40801;41.924;25.562;2023-03-20T05:32:50;99953.78;;;5.69;69.73
54900;BME280;40801;41.924;25.562;2023-03-20T05:35:16;99951.31;;;5.99;69.41
54900;BME280;40801;41.924;25.562;2023-03-20T05:37:41;99958.91;;;6.22;69.57
54900;BME280;40801;41.924;25.562;2023-03-20T05:40:11;99949.34;;;6.37;68.49
54900;BME280;40801;41.924;25.562;2023-03-20T05:42:36;99943.47;;;6.45;68.09
54900;BME280;40801;41.924;25.562;2023-03-20T05:45:02;99949.91;;;6.49;68.34
54900;BME280;40801;41.924;25.562;2023-03-20T05:47:28;99951.59;;;6.70;68.54
54900;BME280;40801;41.924;25.562;2023-03-20T05:49:53;99944.34;;;6.81;68.24
54900;BME280;40801;41.924;25.562;2023-03-20T05:52:19;99942.22;;;6.93;68.68
54900;BME280;40801;41.924;25.562;2023-03-20T05:54:45;99932.84;;;7.41;67.48
54900;BME280;40801;41.924;25.562;2023-03-20T05:57:11;99937.31;;;7.87;66.27
54900;BME280;40801;41.924;25.562;2023-03-20T05:59:37;99928.81;;;8.34;65.06
54900;BME280;40801;41.924;25.562;2023-03-20T06:02:02;99931.06;;;8.66;64.10
54900;BME280;40801;41.924;25.562;2023-03-20T06:04:27;99940.91;;;9.20;62.87
54900;BME280;40801;41.924;25.562;2023-03-20T06:06:53;99937.19;;;9.45;62.05
54900;BME280;40801;41.924;25.562;2023-03-20T06:09:18;99932.19;;;9.62;61.31
54900;BME280;40801;41.924;25.562;2023-03-20T06:11:43;99936.56;;;10.06;60.43
54900;BME280;40801;41.924;25.562;2023-03-20T06:14:09;99935.34;;;10.22;59.80
54900;BME280;40801;41.924;25.562;2023-03-20T06:16:34;99933.00;;;10.34;59.13
54900;BME280;40801;41.924;25.562;2023-03-20T06:19:00;99933.63;;;10.69;58.71
54900;BME280;40801;41.924;25.562;2023-03-20T06:21:25;99941.56;;;10.60;58.07
54900;BME280;40801;41.924;25.562;2023-03-20T06:23:51;99929.44;;;10.95;57.51
54900;BME280;40801;41.924;25.562;2023-03-20T06:26:16;99937.31;;;11.29;56.67
54900;BME280;40801;41.924;25.562;2023-03-20T06:28:41;99936.03;;;11.54;56.13
54900;BME280;40801;41.924;25.562;2023-03-20T06:31:07;99932.28;;;11.69;55.83
54900;BME280;40801;41.924;25.562;2023-03-20T06:33:34;99933.06;;;11.69;55.61
54900;BME280;40801;41.924;25.562;2023-03-20T06:35:59;99941.66;;;12.18;55.11
54900;BME280;40801;41.924;25.562;2023-03-20T06:38:25;99935.56;;;12.62;54.35
54900;BME280;40801;41.924;25.562;2023-03-20T06:40:50;99938.69;;;12.55;54.13
54900;BME280;40801;41.924;25.562;2023-03-20T06:43:15;99940.53;;;12.82;53.94
54900;BME280;40801;41.924;25.562;2023-03-20T06:45:41;99944.50;;;13.21;53.21
54900;BME280;40801;41.924;25.562;2023-03-20T06:48:08;99949.38;;;13.32;53.39
54900;BME280;40801;41.924;25.562;2023-03-20T06:50:33;99951.88;;;13.51;52.31
54900;BME280;40801;41.924;25.562;2023-03-20T06:52:59;99941.78;;;13.74;52.06
54900;BME280;40801;41.924;25.562;2023-03-20T06:55:25;99947.53;;;13.73;51.58
54900;BME280;40801;41.924;25.562;2023-03-20T06:57:50;99942.25;;;13.68;51.78
54900;BME280;40801;41.924;25.562;2023-03-20T07:00:16;99931.16;;;13.86;51.72
54900;BME280;40801;41.924;25.562;2023-03-20T07:02:41;99937.06;;;14.37;50.66
54900;BME280;40801;41.924;25.562;2023-03-20T07:05:07;99925.78;;;14.43;50.51
54900;BME280;40801;41.924;25.562;2023-03-20T07:07:34;99938.91;;;14.67;49.83
54900;BME280;40801;41.924;25.562;2023-03-20T07:10:00;99931.75;;;14.80;49.78
54900;BME280;40801;41.924;25.562;2023-03-20T07:12:25;99923.53;;;15.32;49.12
54900;BME280;40801;41.924;25.562;2023-03-20T07:14:53;99930.78;;;14.93;49.84
54900;BME280;40801;41.924;25.562;2023-03-20T07:17:18;99922.31;;;14.86;49.54
54900;BME280;40801;41.924;25.562;2023-03-20T07:19:43;99915.38;;;15.32;49.03
54900;BME280;40801;41.924;25.562;2023-03-20T07:22:16;99918.44;;;15.86;47.97
54900;BME280;40801;41.924;25.562;2023-03-20T07:24:43;99917.19;;;16.13;47.41
54900;BME280;40801;41.924;25.562;2023-03-20T07:27:09;99911.94;;;16.07;47.53
54900;BME280;40801;41.924;25.562;2023-03-20T07:29:34;99913.66;;;16.71;46.31
54900;BME280;40801;41.924;25.562;2023-03-20T07:32:01;99919.81;;;16.59;46.13
54900;BME280;40801;41.924;25.562;2023-03-20T07:34:27;99910.16;;;16.62;45.75
54900;BME280;40801;41.924;25.562;2023-03-20T07:36:52;99906.06;;;16.97;45.27
54900;BME280;40801;41.924;25.562;2023-03-20T07:39:18;99900.72;;;17.01;44.96
54900;BME280;40801;41.924;25.562;2023-03-20T07:41:43;99895.81;;;17.15;44.33
54900;BME280;40801;41.924;25.562;2023-03-20T07:44:09;99899.50;;;18.01;43.19
54900;BME280;40801;41.924;25.562;2023-03-20T07:46:34;99895.72;;;18.06;42.60
54900;BME280;40801;41.924;25.562;2023-03-20T07:49:00;99891.41;;;18.81;41.33
54900;BME280;40801;41.924;25.562;2023-03-20T07:51:25;99882.56;;;19.00;40.72
54900;BME280;40801;41.924;25.562;2023-03-20T07:53:51;99881.78;;;19.43;40.11
54900;BME280;40801;41.924;25.562;2023-03-20T07:56:17;99886.66;;;19.66;39.41
54900;BME280;40801;41.924;25.562;2023-03-20T07:58:42;99876.06;;;19.96;38.94
54900;BME280;40801;41.924;25.562;2023-03-20T08:01:07;99879.28;;;20.17;38.53
54900;BME280;40801;41.924;25.562;2023-03-20T08:03:33;99882.34;;;19.96;38.40
54900;BME280;40801;41.924;25.562;2023-03-20T08:05:58;99868.84;;;20.23;37.43
54900;BME280;40801;41.924;25.562;2023-03-20T08:08:24;99878.19;;;20.37;37.00
54900;BME280;40801;41.924;25.562;2023-03-20T08:10:49;99877.13;;;20.42;36.71
54900;BME280;40801;41.924;25.562;2023-03-20T08:13:15;99876.88;;;20.31;36.58
54900;BME280;40801;41.924;25.562;2023-03-20T08:15:40;99880.03;;;20.68;36.14
54900;BME280;40801;41.924;25.562;2023-03-20T08:18:05;99880.53;;;20.93;35.91
54900;BME280;40801;41.924;25.562;2023-03-20T08:20:31;99870.81;;;21.38;35.14
54900;BME280;40801;41.924;25.562;2023-03-20T08:22:56;99875.69;;;21.06;35.30
54900;BME280;40801;41.924;25.562;2023-03-20T08:25:22;99878.22;;;21.80;34.47
54900;BME280;40801;41.924;25.562;2023-03-20T08:27:47;99874.63;;;21.53;34.59
54900;BME280;40801;41.924;25.562;2023-03-20T08:30:13;99882.00;;;21.49;34.35
54900;BME280;40801;41.924;25.562;2023-03-20T08:32:39;99879.47;;;22.09;33.77
54900;BME280;40801;41.924;25.562;2023-03-20T08:35:05;99881.84;;;21.87;33.81
54900;BME280;40801;41.924;25.562;2023-03-20T08:37:30;99882.38;;;22.19;33.86
54900;BME280;40801;41.924;25.562;2023-03-20T08:39:56;99885.09;;;22.46;33.43
54900;BME280;40801;41.924;25.562;2023-03-20T08:42:21;99883.56;;;22.78;33.17
54900;BME280;40801;41.924;25.562;2023-03-20T08:44:47;99880.41;;;23.47;31.96
54900;BME280;40801;41.924;25.562;2023-03-20T08:47:12;99876.88;;;23.46;31.85
54900;BME280;40801;41.924;25.562;2023-03-20T08:49:38;99866.13;;;23.34;31.90
54900;BME280;40801;41.924;25.562;2023-03-20T08:52:03;99860.50;;;23.64;31.33
54900;BME280;40801;41.924;25.562;2023-03-20T08:54:29;99864.63;;;23.88;30.99
54900;BME280;40801;41.924;25.562;2023-03-20T08:56:55;99863.78;;;23.77;29.35
54900;BME280;40801;41.924;25.562;2023-03-20T08:59:21;99858.56;;;24.20;28.71
54900;BME280;40801;41.924;25.562;2023-03-20T09:01:47;99857.63;;;23.98;29.14
54900;BME280;40801;41.924;25.562;2023-03-20T09:04:13;99850.88;;;24.57;28.73
54900;BME280;40801;41.924;25.562;2023-03-20T09:06:39;99849.91;;;25.08;28.04
54900;BME280;40801;41.924;25.562;2023-03-20T09:09:05;99840.50;;;25.27;28.12
54900;BME280;40801;41.924;25.562;2023-03-20T09:11:31;99847.22;;;25.72;27.61
54900;BME280;40801;41.924;25.562;2023-03-20T09:13:57;99849.41;;;24.85;28.34
54900;BME280;40801;41.924;25.562;2023-03-20T09:16:24;99846.75;;;25.13;28.10
54900;BME280;40801;41.924;25.562;2023-03-20T09:18:49;99844.47;;;25.90;27.55
54900;BME280;40801;41.924;25.562;2023-03-20T09:21:15;99838.56;;;25.88;27.66
54900;BME280;40801;41.924;25.562;2023-03-20T09:23:40;99837.72;;;26.16;27.01
54900;BME280;40801;41.924;25.562;2023-03-20T09:26:06;99840.84;;;26.36;26.86
54900;BME280;40801;41.924;25.562;2023-03-20T09:28:31;99828.56;;;26.44;26.23
54900;BME280;40801;41.924;25.562;2023-03-20T09:30:57;99829.94;;;26.91;26.16
54900;BME280;40801;41.924;25.562;2023-03-20T09:33:23;99832.50;;;26.50;25.97
54900;BME280;40801;41.924;25.562;2023-03-20T09:35:49;99832.59;;;26.00;26.37
54900;BME280;40801;41.924;25.562;2023-03-20T09:38:15;99832.13;;;26.41;26.19
54900;BME280;40801;41.924;25.562;2023-03-20T09:40:58;99829.78;;;26.36;25.34
54900;BME280;40801;41.924;25.562;2023-03-20T09:48:40;99822.34;;;27.06;25.18
54900;BME280;40801;41.924;25.562;2023-03-20T09:54:01;99821.91;;;27.18;24.71
54900;BME280;40801;41.924;25.562;2023-03-20T09:56:29;99808.66;;;26.77;25.36
54900;BME280;40801;41.924;25.562;2023-03-20T09:59:01;99802.97;;;27.58;24.21
54900;BME280;40801;41.924;25.562;2023-03-20T10:01:37;99796.34;;;27.48;24.56
54900;BME280;40801;41.924;25.562;2023-03-20T10:04:08;99798.34;;;27.40;24.82
54900;BME280;40801;41.924;25.562;2023-03-20T10:06:34;99800.25;;;27.54;24.81
54900;BME280;40801;41.924;25.562;2023-03-20T10:09:01;99790.00;;;28.30;23.81
54900;BME280;40801;41.924;25.562;2023-03-20T10:14:52;99792.31;;;27.04;24.48
54900;BME280;40801;41.924;25.562;2023-03-20T10:17:44;99777.88;;;27.31;24.09
54900;BME280;40801;41.924;25.562;2023-03-20T10:20:33;99778.47;;;27.04;24.76
54900;BME280;40801;41.924;25.562;2023-03-20T10:25:45;99769.91;;;27.36;24.59
54900;BME280;40801;41.924;25.562;2023-03-20T10:31:08;99753.81;;;28.06;23.52
54900;BME280;40801;41.924;25.562;2023-03-20T10:36:25;99743.25;;;28.28;22.81
54900;BME280;40801;41.924;25.562;2023-03-20T10:41:34;99737.75;;;28.55;23.48
54900;BME280;40801;41.924;25.562;2023-03-20T10:44:02;99737.75;;;29.09;23.11
54900;BME280;40801;41.924;25.562;2023-03-20T10:46:40;99738.75;;;29.46;22.42
54900;BME280;40801;41.924;25.562;2023-03-20T10:49:29;99727.94;;;30.14;21.37
54900;BME280;40801;41.924;25.562;2023-03-20T10:52:02;99727.69;;;29.66;21.82
54900;BME280;40801;41.924;25.562;2023-03-20T10:54:35;99710.41;;;29.31;22.81
54900;BME280;40801;41.924;25.562;2023-03-20T10:57:04;99719.56;;;29.95;22.22
54900;BME280;40801;41.924;25.562;2023-03-20T10:59:50;99717.56;;;29.95;21.56
54900;BME280;40801;41.924;25.562;2023-03-20T11:02:17;99717.59;;;30.15;22.27
54900;BME280;40801;41.924;25.562;2023-03-20T11:04:43;99709.81;;;30.06;22.44
54900;BME280;40801;41.924;25.562;2023-03-20T11:10:12;99690.56;;;30.15;21.24
54900;BME280;40801;41.924;25.562;2023-03-20T11:12:40;99693.25;;;30.55;21.22
54900;BME280;40801;41.924;25.562;2023-03-20T11:15:27;99695.09;;;30.26;20.68
54900;BME280;40801;41.924;25.562;2023-03-20T11:17:59;99691.00;;;30.50;21.37
54900;BME280;40801;41.924;25.562;2023-03-20T11:20:27;99680.06;;;30.92;21.34
54900;BME280;40801;41.924;25.562;2023-03-20T11:22:58;99676.94;;;30.90;21.21
54900;BME280;40801;41.924;25.562;2023-03-20T11:26:05;99672.22;;;30.54;20.49
54900;BME280;40801;41.924;25.562;2023-03-20T11:28:35;99671.00;;;30.19;20.56
54900;BME280;40801;41.924;25.562;2023-03-20T11:33:49;99652.94;;;30.96;20.09
54900;BME280;40801;41.924;25.562;2023-03-20T11:36:23;99644.81;;;31.18;19.87
54900;BME280;40801;41.924;25.562;2023-03-20T11:38:51;99645.44;;;30.93;19.76
54900;BME280;40801;41.924;25.562;2023-03-20T11:41:27;99641.34;;;31.30;20.14
54900;BME280;40801;41.924;25.562;2023-03-20T11:43:53;99632.72;;;31.24;20.21
54900;BME280;40801;41.924;25.562;2023-03-20T11:46:20;99631.41;;;31.70;19.88
54900;BME280;40801;41.924;25.562;2023-03-20T11:49:19;99622.19;;;31.44;19.85
54900;BME280;40801;41.924;25.562;2023-03-20T11:51:45;99621.91;;;31.10;20.46
54900;BME280;40801;41.924;25.562;2023-03-20T11:54:17;99617.69;;;31.63;19.91
54900;BME280;40801;41.924;25.562;2023-03-20T11:56:53;99609.66;;;30.91;20.52
54900;BME280;40801;41.924;25.562;2023-03-20T11:59:19;99615.47;;;31.13;20.14
54900;BME280;40801;41.924;25.562;2023-03-20T12:01:52;99606.56;;;31.34;20.12
54900;BME280;40801;41.924;25.562;2023-03-20T12:07:03;99587.44;;;31.91;19.42
54900;BME280;40801;41.924;25.562;2023-03-20T12:15:17;99584.09;;;31.54;19.00
54900;BME280;40801;41.924;25.562;2023-03-20T12:22:55;99562.56;;;32.34;18.47
54900;BME280;40801;41.924;25.562;2023-03-20T12:25:26;99568.00;;;32.51;18.50
54900;BME280;40801;41.924;25.562;2023-03-20T12:28:04;99561.13;;;32.90;17.91
54900;BME280;40801;41.924;25.562;2023-03-20T12:30:57;99557.75;;;32.48;18.06
54900;BME280;40801;41.924;25.562;2023-03-20T12:33:52;99565.56;;;33.22;17.83
54900;BME280;40801;41.924;25.562;2023-03-20T12:38:55;99558.28;;;32.55;18.12
54900;BME280;40801;41.924;25.562;2023-03-20T12:41:25;99539.78;;;31.85;18.33
54900;BME280;40801;41.924;25.562;2023-03-20T12:49:58;99541.69;;;32.39;17.75
54900;BME280;40801;41.924;25.562;2023-03-20T12:58:05;99536.13;;;33.30;17.07
54900;BME280;40801;41.924;25.562;2023-03-20T13:05:59;99533.44;;;32.83;17.06
54900;BME280;40801;41.924;25.562;2023-03-20T13:13:57;99522.94;;;32.14;17.60
54900;BME280;40801;41.924;25.562;2023-03-20T13:19:10;99516.03;;;31.81;17.72
54900;BME280;40801;41.924;25.562;2023-03-20T13:21:55;99521.56;;;32.06;17.94
54900;BME280;40801;41.924;25.562;2023-03-20T13:32:41;99517.50;;;31.43;17.56
54900;BME280;40801;41.924;25.562;2023-03-20T13:38:00;99505.34;;;31.50;18.46
54900;BME280;40801;41.924;25.562;2023-03-20T13:40:33;99502.81;;;31.68;18.04
54900;BME280;40801;41.924;25.562;2023-03-20T13:46:02;99493.47;;;32.00;17.03
54900;BME280;40801;41.924;25.562;2023-03-20T13:48:35;99494.69;;;32.12;17.34
54900;BME280;40801;41.924;25.562;2023-03-20T13:54:14;99492.69;;;32.25;17.05
54900;BME280;40801;41.924;25.562;2023-03-20T14:04:40;99488.59;;;29.49;19.20
54900;BME280;40801;41.924;25.562;2023-03-20T14:07:29;99483.53;;;29.05;20.14
54900;BME280;40801;41.924;25.562;2023-03-20T14:09:54;99483.91;;;28.63;19.70
54900;BME280;40801;41.924;25.562;2023-03-20T14:12:24;99476.31;;;28.44;20.27
54900;BME280;40801;41.924;25.562;2023-03-20T14:14:57;99475.41;;;28.27;19.81
54900;BME280;40801;41.924;25.562;2023-03-20T14:17:26;99462.00;;;28.22;19.63
54900;BME280;40801;41.924;25.562;2023-03-20T14:19:53;99471.47;;;28.72;19.49
54900;BME280;40801;41.924;25.562;2023-03-20T14:22:33;99471.72;;;29.20;20.05
54900;BME280;40801;41.924;25.562;2023-03-20T14:25:05;99466.53;;;29.22;19.89
54900;BME280;40801;41.924;25.562;2023-03-20T14:27:51;99472.09;;;29.39;19.83
54900;BME280;40801;41.924;25.562;2023-03-20T14:35:40;99452.97;;;29.44;19.88
54900;BME280;40801;41.924;25.562;2023-03-20T14:40:42;99442.28;;;29.79;19.40
54900;BME280;40801;41.924;25.562;2023-03-20T14:43:41;99448.22;;;29.61;19.56
54900;BME280;40801;41.924;25.562;2023-03-20T14:49:48;99429.22;;;28.17;21.32
54900;BME280;40801;41.924;25.562;2023-03-20T14:57:43;99425.91;;;26.02;23.79
54900;BME280;40801;41.924;25.562;2023-03-20T15:00:22;99429.38;;;25.57;24.81
54900;BME280;40801;41.924;25.562;2023-03-20T15:05:32;99434.44;;;24.82;25.77
54900;BME280;40801;41.924;25.562;2023-03-20T15:08:04;99430.97;;;24.60;26.18
54900;BME280;40801;41.924;25.562;2023-03-20T15:10:34;99428.22;;;24.60;26.13
54900;BME280;40801;41.924;25.562;2023-03-20T15:13:04;99427.69;;;24.97;26.19
54900;BME280;40801;41.924;25.562;2023-03-20T15:15:30;99427.47;;;25.51;25.62
54900;BME280;40801;41.924;25.562;2023-03-20T15:18:12;99426.47;;;25.82;25.45
54900;BME280;40801;41.924;25.562;2023-03-20T15:20:38;99421.59;;;25.45;25.71
54900;BME280;40801;41.924;25.562;2023-03-20T15:23:04;99424.09;;;25.11;26.38
54900;BME280;40801;41.924;25.562;2023-03-20T15:25:42;99430.56;;;24.62;27.14
54900;BME280;40801;41.924;25.562;2023-03-20T15:28:32;99423.94;;;24.38;27.68
54900;BME280;40801;41.924;25.562;2023-03-20T15:31:00;99422.34;;;23.94;28.48
54900;BME280;40801;41.924;25.562;2023-03-20T15:33:30;99418.38;;;23.70;29.18
54900;BME280;40801;41.924;25.562;2023-03-20T15:35:56;99418.34;;;23.49;28.71
54900;BME280;40801;41.924;25.562;2023-03-20T15:38:28;99417.91;;;23.29;29.02